CSL Niagara — VCGJ — position and weather

sailwx.info

Track history (hours):
 
Tides and Currents Weather Stations Pressure Air Temp Water Temp Dewpoint Dewpoint Depression Visibility Wind Speed Wind Dir Waves Ship Positions

CSL Niagara

ex J. W. McGiffin

Last reported at 2017-Sep-16 18:00 UTC. Time now 2017-Sep-19 22:29 UTC.
Position N 41°48' W 082°12'.

Length 225 m; draft 8.8 m.

Type: Cargo ship. MMSI: 316029000.

Barometer 1024.0 mb
Air temperature 27.0 ° C
Visibility: greater than 10.8 NM

Date/timePositionNaut miles runAvg speedWind from/ knotsBaromVisibWave heightAir tempDewpointWater temp
2017-Sep-16 18:00N 41°48' W 082°12'96 6.4 1024.010.8 27.0
2017-Sep-16 03:00N 43°24' W 082°24'8710.8 170 / 91000.027.0 20.0
2017-Sep-15 19:00N 44°48' W 082°54'4711.8 180 / 16998.0 5.4 21.0
2017-Sep-15 15:00N 45°30' W 083°24'119 7.8 180 / 8998.027.0 20.0
2017-Sep-14 23:47N 46°56' W 085°23'511.5
2017-Sep-14 23:23N 46°57' W 085°29'6311.8
2017-Sep-14 18:00N 47°24' W 086°54'13010.9 180 / 51011.0 5.4 17.0
2017-Sep-14 06:00N 47°18' W 090°06'3912.9 050 / 13986.0 5.4 17.0
2017-Sep-14 03:00N 47°06' W 091°00'3011.9 050 / 11985.027.0 18.0
2017-Sep-14 00:28N 46°53' W 091°40'511.6
2017-Sep-14 00:00N 46°51' W 091°47'611.3
2017-Sep-13 23:31N 46°47' W 091°53'611.2
2017-Sep-13 23:00N 46°44' W 091°59'2 3.9
2017-Sep-13 22:30N 46°42' W 092°01'0 0.5
2017-Sep-13 22:00N 46°42' W 092°01'0 0.0
2017-Sep-13 21:31N 46°42' W 092°01'0 0.0
2017-Sep-13 21:00N 46°42' W 092°01'0 0.0
2017-Sep-13 20:31N 46°42' W 092°01'0 0.0
2017-Sep-13 20:00N 46°42' W 092°01'0 0.0
2017-Sep-13 19:30N 46°42' W 092°01'0 0.0
2017-Sep-13 19:00N 46°42' W 092°01'0 0.0
2017-Sep-13 18:31N 46°42' W 092°01'0 0.0
2017-Sep-13 18:00N 46°42' W 092°01'0 0.0
2017-Sep-13 17:30N 46°42' W 092°01'0 0.0
2017-Sep-13 17:00N 46°42' W 092°01'0 0.0
2017-Sep-13 16:30N 46°42' W 092°01'0 0.0
2017-Sep-13 16:00N 46°42' W 092°01'0 0.0
2017-Sep-13 15:30N 46°42' W 092°01'0 0.0
2017-Sep-13 14:55N 46°42' W 092°01'0 0.0
2017-Sep-13 14:30N 46°42' W 092°01'0 0.0
2017-Sep-13 14:00N 46°42' W 092°01'0 0.0
2017-Sep-13 13:30N 46°42' W 092°01'0 0.0
2017-Sep-13 13:00N 46°42' W 092°01'0 0.0
2017-Sep-13 12:30N 46°42' W 092°01'0 0.0
2017-Sep-13 12:00N 46°42' W 092°01'0 0.0
2017-Sep-13 11:30N 46°42' W 092°01'0 0.0
2017-Sep-13 11:00N 46°42' W 092°01'0 0.0
2017-Sep-13 10:30N 46°42' W 092°01'0 0.0
2017-Sep-13 10:00N 46°42' W 092°01'0 0.0
2017-Sep-13 09:30N 46°42' W 092°01'0 0.0
2017-Sep-13 09:00N 46°42' W 092°01'0 0.0
2017-Sep-13 08:30N 46°42' W 092°01'0 0.0
2017-Sep-13 08:00N 46°42' W 092°01'0 0.0
2017-Sep-13 07:30N 46°42' W 092°01'0 0.0
2017-Sep-13 07:00N 46°42' W 092°01'0 0.7
2017-Sep-13 06:30N 46°42' W 092°01'1 2.7
2017-Sep-13 06:00N 46°43' W 091°60'1 1.0
2017-Sep-13 05:30N 46°44' W 091°59'0 0.1
2017-Sep-13 05:00N 46°44' W 091°59'0 0.5
2017-Sep-13 04:30N 46°44' W 091°59'1 2.2
2017-Sep-13 04:00N 46°45' W 091°59'1 1.6
2017-Sep-13 03:30N 46°45' W 092°00'0 0.1
2017-Sep-13 03:00N 46°45' W 092°00'0 0.0
2017-Sep-13 02:30N 46°45' W 092°00'0 0.0
2017-Sep-13 02:00N 46°45' W 092°00'3258.2
2017-Sep-13 02:00N 46°48' W 092°00'3 5.4 060 / 3989.027.0 18.0
2017-Sep-13 01:30N 46°45' W 092°00'0 0.0
2017-Sep-13 01:00N 46°45' W 092°00'0 0.0
2017-Sep-13 00:30N 46°45' W 092°00'0 0.0
2017-Sep-13 00:00N 46°45' W 092°00'0 0.1
2017-Sep-12 23:30N 46°45' W 092°00'0 0.1
2017-Sep-12 23:00N 46°45' W 092°00'0 0.0
2017-Sep-12 22:30N 46°45' W 092°00'0 0.1
2017-Sep-12 22:00N 46°45' W 092°00'0 0.0
2017-Sep-12 21:30N 46°45' W 092°00'0 0.0
2017-Sep-12 21:00N 46°45' W 092°00'0 0.0
2017-Sep-12 20:30N 46°45' W 092°00'0 0.0
2017-Sep-12 20:01N 46°45' W 092°00'0 0.1
2017-Sep-12 19:30N 46°45' W 092°00'0 0.1
2017-Sep-12 19:00N 46°45' W 092°00'0 0.1
2017-Sep-12 18:30N 46°45' W 092°00'0 0.1
2017-Sep-12 18:00N 46°45' W 091°60'0 0.1
2017-Sep-12 17:31N 46°45' W 091°60'0 0.0
2017-Sep-12 17:00N 46°45' W 091°60'0 0.0
2017-Sep-12 16:30N 46°45' W 091°60'0 0.1
2017-Sep-12 16:00N 46°45' W 091°60'5332.8
2017-Sep-12 16:00N 46°42' W 091°54'510.7 330 / 2 5.4 24.0
2017-Sep-12 15:30N 46°45' W 091°60'0 0.1
2017-Sep-12 15:00N 46°45' W 091°60'3164.7
2017-Sep-12 15:00N 46°48' W 092°00'3 5.3 210 / 3996.027.0 20.0
2017-Sep-12 14:30N 46°45' W 091°60'0 0.1
2017-Sep-12 13:33N 46°45' W 091°60'0 0.2
2017-Sep-12 13:30N 46°45' W 091°60'0 0.0
2017-Sep-11 23:36N 46°45' W 091°60'0 0.0
2017-Sep-11 23:30N 46°45' W 091°60'0 0.1
2017-Sep-11 23:00N 46°45' W 091°60'0 0.0
2017-Sep-11 22:30N 46°45' W 091°60'0 0.0
2017-Sep-11 22:00N 46°45' W 091°60'0 0.0
2017-Sep-11 21:30N 46°45' W 091°60'0 0.2
2017-Sep-11 21:00N 46°45' W 091°60'0 0.1
2017-Sep-11 20:30N 46°45' W 091°60'0 0.0
2017-Sep-11 20:00N 46°45' W 091°60'0 0.0
2017-Sep-11 19:30N 46°45' W 091°60'0 0.1
2017-Sep-11 19:00N 46°45' W 091°60'0 0.0
2017-Sep-11 18:30N 46°45' W 091°60'0 0.0
2017-Sep-11 18:00N 46°45' W 091°60'0 0.0
2017-Sep-11 17:30N 46°45' W 091°60'0 0.0
2017-Sep-11 17:00N 46°45' W 091°60'0 0.1
2017-Sep-11 16:30N 46°45' W 091°60'0 0.0
2017-Sep-11 16:00N 46°45' W 091°60'0 0.0
2017-Sep-11 15:30N 46°45' W 091°60'0 0.1
2017-Sep-11 15:00N 46°45' W 091°60'3201.3
2017-Sep-11 15:00N 46°48' W 092°00'3 5.5 240 / 14999.027.0 20.0
2017-Sep-11 14:30N 46°45' W 091°60'0 0.3
2017-Sep-11 14:00N 46°45' W 092°00'  
Track history (hours):
 
Tides and Currents Weather Stations Pressure Air Temp Water Temp Dewpoint Dewpoint Depression Visibility Wind Speed Wind Dir Waves Ship Positions

CSL Niagara

ex J. W. McGiffin

Last reported at 2017-Sep-16 18:00 UTC. Time now 2017-Sep-19 22:29 UTC.
Position N 41°48' W 082°12'.

Length 225 m; draft 8.8 m.

Type: Cargo ship. MMSI: 316029000.

Barometer 1024.0 mb
Air temperature 27.0 ° C
Visibility: greater than 10.8 NM

Date/timePositionNaut miles runAvg speedWind from/ knotsBaromVisibWave heightAir tempDewpointWater temp
2017-Sep-16 18:00N 41°48' W 082°12'96 6.4 1024.010.8 27.0
2017-Sep-16 03:00N 43°24' W 082°24'8710.8 170 / 91000.027.0 20.0
2017-Sep-15 19:00N 44°48' W 082°54'4711.8 180 / 16998.0 5.4 21.0
2017-Sep-15 15:00N 45°30' W 083°24'119 7.8 180 / 8998.027.0 20.0
2017-Sep-14 23:47N 46°56' W 085°23'511.5
2017-Sep-14 23:23N 46°57' W 085°29'6311.8
2017-Sep-14 18:00N 47°24' W 086°54'13010.9 180 / 51011.0 5.4 17.0
2017-Sep-14 06:00N 47°18' W 090°06'3912.9 050 / 13986.0 5.4 17.0
2017-Sep-14 03:00N 47°06' W 091°00'3011.9 050 / 11985.027.0 18.0
2017-Sep-14 00:28N 46°53' W 091°40'511.6
2017-Sep-14 00:00N 46°51' W 091°47'611.3
2017-Sep-13 23:31N 46°47' W 091°53'611.2
2017-Sep-13 23:00N 46°44' W 091°59'2 3.9
2017-Sep-13 22:30N 46°42' W 092°01'0 0.5
2017-Sep-13 22:00N 46°42' W 092°01'0 0.0
2017-Sep-13 21:31N 46°42' W 092°01'0 0.0
2017-Sep-13 21:00N 46°42' W 092°01'0 0.0
2017-Sep-13 20:31N 46°42' W 092°01'0 0.0
2017-Sep-13 20:00N 46°42' W 092°01'0 0.0
2017-Sep-13 19:30N 46°42' W 092°01'0 0.0
2017-Sep-13 19:00N 46°42' W 092°01'0 0.0
2017-Sep-13 18:31N 46°42' W 092°01'0 0.0
2017-Sep-13 18:00N 46°42' W 092°01'0 0.0
2017-Sep-13 17:30N 46°42' W 092°01'0 0.0
2017-Sep-13 17:00N 46°42' W 092°01'0 0.0
2017-Sep-13 16:30N 46°42' W 092°01'0 0.0
2017-Sep-13 16:00N 46°42' W 092°01'0 0.0
2017-Sep-13 15:30N 46°42' W 092°01'0 0.0
2017-Sep-13 14:55N 46°42' W 092°01'0 0.0
2017-Sep-13 14:30N 46°42' W 092°01'0 0.0
2017-Sep-13 14:00N 46°42' W 092°01'0 0.0
2017-Sep-13 13:30N 46°42' W 092°01'0 0.0
2017-Sep-13 13:00N 46°42' W 092°01'0 0.0
2017-Sep-13 12:30N 46°42' W 092°01'0 0.0
2017-Sep-13 12:00N 46°42' W 092°01'0 0.0
2017-Sep-13 11:30N 46°42' W 092°01'0 0.0
2017-Sep-13 11:00N 46°42' W 092°01'0 0.0
2017-Sep-13 10:30N 46°42' W 092°01'0 0.0
2017-Sep-13 10:00N 46°42' W 092°01'0 0.0
2017-Sep-13 09:30N 46°42' W 092°01'0 0.0
2017-Sep-13 09:00N 46°42' W 092°01'0 0.0
2017-Sep-13 08:30N 46°42' W 092°01'0 0.0
2017-Sep-13 08:00N 46°42' W 092°01'0 0.0
2017-Sep-13 07:30N 46°42' W 092°01'0 0.0
2017-Sep-13 07:00N 46°42' W 092°01'0 0.7
2017-Sep-13 06:30N 46°42' W 092°01'1 2.7
2017-Sep-13 06:00N 46°43' W 091°60'1 1.0
2017-Sep-13 05:30N 46°44' W 091°59'0 0.1
2017-Sep-13 05:00N 46°44' W 091°59'0 0.5
2017-Sep-13 04:30N 46°44' W 091°59'1 2.2
2017-Sep-13 04:00N 46°45' W 091°59'1 1.6
2017-Sep-13 03:30N 46°45' W 092°00'0 0.1
2017-Sep-13 03:00N 46°45' W 092°00'0 0.0
2017-Sep-13 02:30N 46°45' W 092°00'0 0.0
2017-Sep-13 02:00N 46°45' W 092°00'3258.2
2017-Sep-13 02:00N 46°48' W 092°00'3 5.4 060 / 3989.027.0 18.0
2017-Sep-13 01:30N 46°45' W 092°00'0 0.0
2017-Sep-13 01:00N 46°45' W 092°00'0 0.0
2017-Sep-13 00:30N 46°45' W 092°00'0 0.0
2017-Sep-13 00:00N 46°45' W 092°00'0 0.1
2017-Sep-12 23:30N 46°45' W 092°00'0 0.1
2017-Sep-12 23:00N 46°45' W 092°00'0 0.0
2017-Sep-12 22:30N 46°45' W 092°00'0 0.1
2017-Sep-12 22:00N 46°45' W 092°00'0 0.0
2017-Sep-12 21:30N 46°45' W 092°00'0 0.0
2017-Sep-12 21:00N 46°45' W 092°00'0 0.0
2017-Sep-12 20:30N 46°45' W 092°00'0 0.0
2017-Sep-12 20:01N 46°45' W 092°00'0 0.1
2017-Sep-12 19:30N 46°45' W 092°00'0 0.1
2017-Sep-12 19:00N 46°45' W 092°00'0 0.1
2017-Sep-12 18:30N 46°45' W 092°00'0 0.1
2017-Sep-12 18:00N 46°45' W 091°60'0 0.1
2017-Sep-12 17:31N 46°45' W 091°60'0 0.0
2017-Sep-12 17:00N 46°45' W 091°60'0 0.0
2017-Sep-12 16:30N 46°45' W 091°60'0 0.1
2017-Sep-12 16:00N 46°45' W 091°60'5332.8
2017-Sep-12 16:00N 46°42' W 091°54'510.7 330 / 2 5.4 24.0
2017-Sep-12 15:30N 46°45' W 091°60'0 0.1
2017-Sep-12 15:00N 46°45' W 091°60'3164.7
2017-Sep-12 15:00N 46°48' W 092°00'3 5.3 210 / 3996.027.0 20.0
2017-Sep-12 14:30N 46°45' W 091°60'0 0.1
2017-Sep-12 13:33N 46°45' W 091°60'0 0.2
2017-Sep-12 13:30N 46°45' W 091°60'0 0.0
2017-Sep-11 23:36N 46°45' W 091°60'0 0.0
2017-Sep-11 23:30N 46°45' W 091°60'0 0.1
2017-Sep-11 23:00N 46°45' W 091°60'0 0.0
2017-Sep-11 22:30N 46°45' W 091°60'0 0.0
2017-Sep-11 22:00N 46°45' W 091°60'0 0.0
2017-Sep-11 21:30N 46°45' W 091°60'0 0.2
2017-Sep-11 21:00N 46°45' W 091°60'0 0.1
2017-Sep-11 20:30N 46°45' W 091°60'0 0.0
2017-Sep-11 20:00N 46°45' W 091°60'0 0.0
2017-Sep-11 19:30N 46°45' W 091°60'0 0.1
2017-Sep-11 19:00N 46°45' W 091°60'0 0.0
2017-Sep-11 18:30N 46°45' W 091°60'0 0.0
2017-Sep-11 18:00N 46°45' W 091°60'0 0.0
2017-Sep-11 17:30N 46°45' W 091°60'0 0.0
2017-Sep-11 17:00N 46°45' W 091°60'0 0.1
2017-Sep-11 16:30N 46°45' W 091°60'0 0.0
2017-Sep-11 16:00N 46°45' W 091°60'0 0.0
2017-Sep-11 15:30N 46°45' W 091°60'0 0.1
2017-Sep-11 15:00N 46°45' W 091°60'3201.3
2017-Sep-11 15:00N 46°48' W 092°00'3 5.5 240 / 14999.027.0 20.0
2017-Sep-11 14:30N 46°45' W 091°60'0 0.3
2017-Sep-11 14:00N 46°45' W 092°00'  

Dump ship's entire track history